EXS128J EGSS-LGRP
Flight info
| Callsign | EXS128J |
|---|---|
| Flight time | 3h 39m |
| Altitude | 35000 |
| Route | CLN M84 KONAN UL607 KOK DCT REMBA UL607 SPI DCT LIRSU DCT VIBOM DCT NOMBO DCT RIDAR DCT RADIZ DCT NIPEL DCT MONID DCT SOLGU DCT MEDUX UM867 KOGAT DCT ERANA UL737 TSL UN130 MES UN139 LURUS UL995 CODIC |
| Aircraft | B738/M-SDE2E3FGHIRWXY/LB1 |
Departure
| Time | 2026-05-04 07:33 |
|---|---|
| Airport | London Stansted Airport (EGSS) |
Arrival
| Time | 2026-05-04 11:12 |
|---|---|
| Airport | Rhodes International Airport "Diagoras" (LGRP) |
| Time | Latitude | Longitude | Altitude | Speed | Heading |
|---|---|---|---|---|---|
| 2026-05-04 07:06 | 51.88947 | 0.25221 | 355 ft | 0 kts | 43° |
| 2026-05-04 07:22 | 51.88869 | 0.25195 | 348 ft | 0 kts | 313° |
| 2026-05-04 07:24 | 51.88870 | 0.25194 | 348 ft | 1 kts | 313° |
| 2026-05-04 07:24 | 51.88892 | 0.25155 | 348 ft | 9 kts | 314° |
| 2026-05-04 07:24 | 51.88949 | 0.25057 | 348 ft | 14 kts | 311° |
| 2026-05-04 07:24 | 51.88939 | 0.24923 | 348 ft | 13 kts | 225° |
| 2026-05-04 07:25 | 51.88864 | 0.24811 | 355 ft | 16 kts | 224° |
| 2026-05-04 07:26 | 51.88240 | 0.23872 | 349 ft | 24 kts | 223° |
| 2026-05-04 07:27 | 51.88185 | 0.23789 | 350 ft | 23 kts | 223° |
| 2026-05-04 07:27 | 51.88107 | 0.23673 | 352 ft | 23 kts | 222° |
| 2026-05-04 07:27 | 51.87957 | 0.23446 | 350 ft | 22 kts | 223° |
| 2026-05-04 07:28 | 51.87882 | 0.23336 | 356 ft | 21 kts | 222° |
| 2026-05-04 07:28 | 51.87752 | 0.23140 | 357 ft | 13 kts | 225° |
| 2026-05-04 07:28 | 51.87732 | 0.23053 | 348 ft | 13 kts | 282° |
| 2026-05-04 07:28 | 51.87788 | 0.22939 | 354 ft | 10 kts | 313° |
| 2026-05-04 07:29 | 51.87795 | 0.22918 | 350 ft | 3 kts | 285° |
| 2026-05-04 07:29 | 51.87755 | 0.22849 | 352 ft | 16 kts | 224° |
| 2026-05-04 07:29 | 51.87642 | 0.22677 | 348 ft | 26 kts | 223° |
| 2026-05-04 07:29 | 51.87529 | 0.22499 | 346 ft | 18 kts | 239° |
| 2026-05-04 07:30 | 51.87576 | 0.22331 | 350 ft | 17 kts | 317° |
| 2026-05-04 07:30 | 51.87686 | 0.22270 | 335 ft | 18 kts | 20° |
| 2026-05-04 07:30 | 51.87782 | 0.22402 | 347 ft | 18 kts | 42° |
| 2026-05-04 07:30 | 51.88012 | 0.22749 | 339 ft | 79 kts | 42° |
| 2026-05-04 07:31 | 51.88577 | 0.23595 | 351 ft | 139 kts | 43° |
| 2026-05-04 07:31 | 51.89404 | 0.24836 | 520 ft | 175 kts | 41° |
| 2026-05-04 07:33 | 51.89385 | 0.39374 | 4020 ft | 266 kts | 116° |
| 2026-05-04 07:33 | 51.88575 | 0.42087 | 4010 ft | 268 kts | 116° |
| 2026-05-04 07:33 | 51.87777 | 0.44789 | 4168 ft | 269 kts | 116° |
| 2026-05-04 07:33 | 51.86966 | 0.47544 | 4916 ft | 270 kts | 116° |
| 2026-05-04 07:34 | 51.86167 | 0.50269 | 5584 ft | 270 kts | 116° |
| 2026-05-04 07:34 | 51.85359 | 0.53021 | 6010 ft | 272 kts | 117° |
| 2026-05-04 07:34 | 51.84531 | 0.55834 | 6021 ft | 280 kts | 116° |
| 2026-05-04 07:34 | 51.83695 | 0.58684 | 6574 ft | 280 kts | 116° |
| 2026-05-04 07:35 | 51.82941 | 0.61580 | 7417 ft | 279 kts | 113° |
| 2026-05-04 07:35 | 51.82238 | 0.64488 | 8163 ft | 283 kts | 112° |
| 2026-05-04 07:35 | 51.81523 | 0.67487 | 8920 ft | 286 kts | 112° |
| 2026-05-04 07:35 | 51.80798 | 0.70515 | 9680 ft | 290 kts | 112° |
| 2026-05-04 07:36 | 51.80071 | 0.73535 | 10309 ft | 296 kts | 113° |
| 2026-05-04 07:36 | 51.79290 | 0.76758 | 10523 ft | 319 kts | 113° |
| 2026-05-04 07:38 | 51.69161 | 1.00110 | 13432 ft | 393 kts | 140° |
| 2026-05-04 07:38 | 51.67121 | 1.03055 | 14028 ft | 397 kts | 140° |
| 2026-05-04 07:38 | 51.65062 | 1.06044 | 14622 ft | 399 kts | 140° |
| 2026-05-04 07:38 | 51.62992 | 1.09057 | 15206 ft | 402 kts | 140° |
| 2026-05-04 07:39 | 51.60925 | 1.12061 | 15753 ft | 405 kts | 140° |
| 2026-05-04 07:39 | 51.58827 | 1.15112 | 16302 ft | 408 kts | 140° |
| 2026-05-04 07:39 | 51.56728 | 1.18166 | 16840 ft | 411 kts | 140° |
| 2026-05-04 07:39 | 51.54579 | 1.21292 | 17390 ft | 414 kts | 140° |
| 2026-05-04 07:40 | 51.52459 | 1.24374 | 17918 ft | 417 kts | 140° |
| 2026-05-04 07:40 | 51.50290 | 1.27522 | 18422 ft | 420 kts | 140° |
| 2026-05-04 07:40 | 51.48110 | 1.30684 | 18867 ft | 424 kts | 140° |
| 2026-05-04 07:40 | 51.45908 | 1.33871 | 19298 ft | 427 kts | 140° |
| 2026-05-04 07:41 | 51.43727 | 1.37053 | 19734 ft | 430 kts | 139° |
| 2026-05-04 07:41 | 51.41698 | 1.40663 | 20155 ft | 436 kts | 130° |
| 2026-05-04 07:41 | 51.39867 | 1.44513 | 20564 ft | 440 kts | 129° |
| 2026-05-04 07:41 | 51.38036 | 1.48433 | 20954 ft | 443 kts | 129° |
| 2026-05-04 07:42 | 51.36174 | 1.52404 | 21348 ft | 446 kts | 130° |
| 2026-05-04 07:42 | 51.34282 | 1.56396 | 21741 ft | 449 kts | 130° |
| 2026-05-04 07:42 | 51.32368 | 1.60393 | 22148 ft | 452 kts | 130° |
| 2026-05-04 07:42 | 51.30467 | 1.64335 | 22607 ft | 453 kts | 130° |
| 2026-05-04 07:43 | 51.28547 | 1.68296 | 22988 ft | 455 kts | 131° |
| 2026-05-04 07:43 | 51.26583 | 1.72337 | 23333 ft | 459 kts | 131° |
| 2026-05-04 07:43 | 51.24635 | 1.76342 | 23660 ft | 462 kts | 131° |
| 2026-05-04 07:43 | 51.22651 | 1.80414 | 23995 ft | 463 kts | 131° |
| 2026-05-04 07:44 | 51.20689 | 1.84441 | 24366 ft | 463 kts | 131° |
| 2026-05-04 07:44 | 51.18703 | 1.88512 | 24730 ft | 464 kts | 131° |
| 2026-05-04 07:44 | 51.16721 | 1.92561 | 25035 ft | 465 kts | 132° |
| 2026-05-04 07:44 | 51.14839 | 1.96816 | 25315 ft | 472 kts | 124° |
| 2026-05-04 07:45 | 51.13469 | 2.01563 | 25604 ft | 480 kts | 113° |
| 2026-05-04 07:45 | 51.12605 | 2.06760 | 25920 ft | 488 kts | 103° |
| 2026-05-04 07:45 | 51.12257 | 2.12162 | 26205 ft | 492 kts | 98° |
| 2026-05-04 07:45 | 51.12019 | 2.17567 | 26468 ft | 494 kts | 98° |
| 2026-05-04 07:46 | 51.11783 | 2.23087 | 26765 ft | 495 kts | 98° |
| 2026-05-04 07:46 | 51.11534 | 2.28485 | 27148 ft | 493 kts | 99° |
| 2026-05-04 07:46 | 51.11257 | 2.33960 | 27590 ft | 491 kts | 99° |
| 2026-05-04 07:46 | 51.10967 | 2.39324 | 27963 ft | 490 kts | 100° |
| 2026-05-04 07:47 | 51.10666 | 2.44702 | 28189 ft | 492 kts | 100° |
| 2026-05-04 07:47 | 51.10356 | 2.50154 | 28504 ft | 493 kts | 100° |
| 2026-05-04 07:47 | 51.10049 | 2.55596 | 28927 ft | 491 kts | 100° |
| 2026-05-04 07:49 | 51.04721 | 2.91642 | 30985 ft | 482 kts | 112° |
| 2026-05-04 07:49 | 51.03758 | 2.96779 | 31228 ft | 483 kts | 112° |
| 2026-05-04 07:49 | 51.02812 | 3.01892 | 31599 ft | 480 kts | 112° |
| 2026-05-04 07:50 | 51.01872 | 3.07003 | 31938 ft | 479 kts | 112° |
| 2026-05-04 07:50 | 51.00944 | 3.12045 | 32198 ft | 479 kts | 112° |
| 2026-05-04 07:50 | 51.00003 | 3.17144 | 32441 ft | 479 kts | 112° |
| 2026-05-04 07:50 | 50.99073 | 3.22168 | 32696 ft | 479 kts | 112° |
| 2026-05-04 07:51 | 50.98134 | 3.27225 | 32991 ft | 478 kts | 112° |
| 2026-05-04 07:51 | 50.97186 | 3.32311 | 33241 ft | 478 kts | 112° |
| 2026-05-04 07:51 | 50.96242 | 3.37356 | 33375 ft | 481 kts | 112° |
| 2026-05-04 07:51 | 50.95283 | 3.42464 | 33577 ft | 481 kts | 112° |
| 2026-05-04 07:52 | 50.94337 | 3.47499 | 33873 ft | 480 kts | 112° |
| 2026-05-04 07:52 | 50.93379 | 3.52586 | 34155 ft | 478 kts | 112° |
| 2026-05-04 07:52 | 50.92433 | 3.57597 | 34404 ft | 477 kts | 112° |
| 2026-05-04 07:52 | 50.91476 | 3.62647 | 34606 ft | 476 kts | 112° |
| 2026-05-04 07:53 | 50.90529 | 3.67629 | 34813 ft | 476 kts | 112° |
| 2026-05-04 07:54 | 50.83762 | 4.02859 | 34992 ft | 475 kts | 112° |
| 2026-05-04 07:55 | 50.81823 | 4.12834 | 34990 ft | 474 kts | 112° |
| 2026-05-04 07:55 | 50.79883 | 4.22763 | 34979 ft | 473 kts | 112° |
| 2026-05-04 07:56 | 50.77945 | 4.32629 | 34998 ft | 472 kts | 113° |
| 2026-05-04 07:56 | 50.75981 | 4.42577 | 34996 ft | 472 kts | 113° |
| 2026-05-04 07:57 | 50.74022 | 4.52452 | 35001 ft | 473 kts | 113° |
| 2026-05-04 07:57 | 50.72049 | 4.62346 | 34994 ft | 474 kts | 113° |
| 2026-05-04 07:58 | 50.70061 | 4.72265 | 34997 ft | 474 kts | 113° |
| 2026-05-04 07:58 | 50.68065 | 4.82179 | 34995 ft | 475 kts | 113° |
| 2026-05-04 07:59 | 50.66060 | 4.92089 | 35002 ft | 475 kts | 113° |
| 2026-05-04 07:59 | 50.64041 | 5.01979 | 35000 ft | 476 kts | 113° |
| 2026-05-04 08:00 | 50.61995 | 5.11950 | 35003 ft | 476 kts | 113° |
| 2026-05-04 08:02 | 50.53774 | 5.51574 | 35002 ft | 478 kts | 113° |
| 2026-05-04 08:02 | 50.51663 | 5.61433 | 34982 ft | 476 kts | 117° |
| 2026-05-04 08:03 | 50.48517 | 5.70438 | 35000 ft | 467 kts | 127° |
| 2026-05-04 08:03 | 50.45052 | 5.79032 | 34997 ft | 467 kts | 127° |
| 2026-05-04 08:04 | 50.41599 | 5.87684 | 34992 ft | 468 kts | 127° |
| 2026-05-04 08:04 | 50.38183 | 5.96339 | 34979 ft | 469 kts | 127° |
| 2026-05-04 08:05 | 50.34767 | 6.04995 | 34984 ft | 467 kts | 127° |
| 2026-05-04 08:05 | 50.31350 | 6.13623 | 34979 ft | 467 kts | 127° |
| 2026-05-04 08:06 | 50.27928 | 6.22228 | 34990 ft | 466 kts | 127° |
| 2026-05-04 08:06 | 50.24489 | 6.30847 | 34976 ft | 465 kts | 127° |
| 2026-05-04 08:08 | 50.14286 | 6.62414 | 35005 ft | 471 kts | 116° |
| 2026-05-04 08:08 | 50.13134 | 6.67132 | 35005 ft | 471 kts | 116° |
| 2026-05-04 08:11 | 50.02258 | 7.09811 | 35023 ft | 473 kts | 116° |
| 2026-05-04 08:11 | 49.98561 | 7.24069 | 35016 ft | 473 kts | 117° |
| 2026-05-04 08:12 | 49.96104 | 7.33502 | 35006 ft | 473 kts | 117° |
| 2026-05-04 08:12 | 49.93631 | 7.42953 | 35019 ft | 473 kts | 117° |
| 2026-05-04 08:13 | 49.91146 | 7.52409 | 35012 ft | 473 kts | 117° |
| 2026-05-04 08:13 | 49.88648 | 7.61879 | 35001 ft | 473 kts | 117° |
| 2026-05-04 08:14 | 49.86155 | 7.71290 | 35009 ft | 473 kts | 117° |
| 2026-05-04 08:16 | 49.76104 | 8.08851 | 35018 ft | 472 kts | 117° |
| 2026-05-04 08:16 | 49.73575 | 8.18207 | 35003 ft | 471 kts | 117° |
| 2026-05-04 08:17 | 49.71045 | 8.27528 | 35014 ft | 471 kts | 117° |
| 2026-05-04 08:17 | 49.68496 | 8.36880 | 35017 ft | 471 kts | 117° |
| 2026-05-04 08:19 | 49.58251 | 8.74106 | 35021 ft | 471 kts | 117° |
| 2026-05-04 08:20 | 49.55679 | 8.83362 | 35022 ft | 471 kts | 117° |
| 2026-05-04 08:20 | 49.53100 | 8.92605 | 35016 ft | 471 kts | 117° |
| 2026-05-04 08:21 | 49.50508 | 9.01863 | 35007 ft | 471 kts | 117° |
| 2026-05-04 08:21 | 49.47916 | 9.11088 | 35020 ft | 471 kts | 117° |
| 2026-05-04 08:22 | 49.44931 | 9.19998 | 35040 ft | 465 kts | 127° |
| 2026-05-04 08:24 | 49.31203 | 9.51671 | 35030 ft | 466 kts | 128° |
| 2026-05-04 08:24 | 49.27631 | 9.59981 | 35036 ft | 466 kts | 128° |
| 2026-05-04 08:25 | 49.24071 | 9.68232 | 35042 ft | 466 kts | 128° |
| 2026-05-04 08:25 | 49.20482 | 9.76519 | 35050 ft | 467 kts | 128° |
| 2026-05-04 08:27 | 49.03823 | 10.06314 | 35044 ft | 462 kts | 137° |
| 2026-05-04 08:28 | 48.99467 | 10.13544 | 35057 ft | 463 kts | 137° |
| 2026-05-04 08:28 | 48.95138 | 10.20736 | 35048 ft | 463 kts | 136° |
| 2026-05-04 08:29 | 48.90766 | 10.27980 | 35065 ft | 464 kts | 136° |
| 2026-05-04 08:31 | 48.73198 | 10.56859 | 35053 ft | 467 kts | 136° |
| 2026-05-04 08:33 | 48.55694 | 10.85799 | 35044 ft | 470 kts | 133° |
| 2026-05-04 08:35 | 48.39293 | 11.16413 | 35046 ft | 470 kts | 133° |
| 2026-05-04 08:35 | 48.35147 | 11.24023 | 35031 ft | 470 kts | 133° |
| 2026-05-04 08:37 | 48.20609 | 11.50552 | 35047 ft | 470 kts | 133° |
| 2026-05-04 08:38 | 48.16465 | 11.58067 | 35044 ft | 470 kts | 133° |
| 2026-05-04 08:38 | 48.12283 | 11.65630 | 35037 ft | 470 kts | 133° |
| 2026-05-04 08:40 | 47.97471 | 11.92243 | 35036 ft | 482 kts | 133° |
| 2026-05-04 08:40 | 47.95340 | 11.96052 | 35028 ft | 482 kts | 133° |
| 2026-05-04 08:41 | 47.91022 | 12.03753 | 35045 ft | 482 kts | 133° |
| 2026-05-04 08:41 | 47.86727 | 12.11390 | 35028 ft | 482 kts | 133° |
| 2026-05-04 08:42 | 47.82418 | 12.19030 | 35046 ft | 482 kts | 133° |
| 2026-05-04 08:42 | 47.78110 | 12.26648 | 35041 ft | 481 kts | 133° |
| 2026-05-04 08:43 | 47.73789 | 12.34266 | 35043 ft | 480 kts | 133° |
| 2026-05-04 08:43 | 47.69501 | 12.41805 | 35044 ft | 479 kts | 133° |
| 2026-05-04 08:44 | 47.65195 | 12.49358 | 35037 ft | 479 kts | 133° |
| 2026-05-04 08:46 | 47.46037 | 12.76213 | 35027 ft | 474 kts | 140° |
| 2026-05-04 08:46 | 47.41134 | 12.82771 | 35032 ft | 474 kts | 140° |
| 2026-05-04 08:47 | 47.36275 | 12.89273 | 35040 ft | 473 kts | 140° |
| 2026-05-04 08:47 | 47.31384 | 12.95798 | 35034 ft | 473 kts | 140° |
| 2026-05-04 08:48 | 47.26513 | 13.02278 | 35048 ft | 474 kts | 140° |
| 2026-05-04 08:48 | 47.21596 | 13.08798 | 35058 ft | 474 kts | 140° |
| 2026-05-04 08:49 | 47.16706 | 13.15268 | 35064 ft | 474 kts | 140° |
| 2026-05-04 08:50 | 47.01961 | 13.34675 | 35864 ft | 469 kts | 140° |
| 2026-05-04 08:50 | 46.99549 | 13.37837 | 36291 ft | 463 kts | 140° |
| 2026-05-04 08:51 | 46.97182 | 13.40936 | 36664 ft | 459 kts | 140° |
| 2026-05-04 08:51 | 46.94806 | 13.44042 | 36895 ft | 458 kts | 140° |
| 2026-05-04 08:51 | 46.92416 | 13.47160 | 37030 ft | 458 kts | 140° |
| 2026-05-04 08:51 | 46.90027 | 13.50273 | 37086 ft | 458 kts | 140° |
| 2026-05-04 08:52 | 46.85257 | 13.56478 | 37109 ft | 460 kts | 140° |
| 2026-05-04 08:52 | 46.80477 | 13.62682 | 37098 ft | 461 kts | 140° |
| 2026-05-04 08:54 | 46.61233 | 13.87511 | 37113 ft | 463 kts | 140° |
| 2026-05-04 08:55 | 46.56376 | 13.93740 | 37108 ft | 463 kts | 140° |
| 2026-05-04 08:55 | 46.51550 | 13.99915 | 37100 ft | 462 kts | 141° |
| 2026-05-04 09:01 | 46.04797 | 14.71185 | 37138 ft | 470 kts | 134° |
| 2026-05-04 09:01 | 46.00298 | 14.78016 | 37124 ft | 471 kts | 135° |
| 2026-05-04 09:02 | 45.95799 | 14.84831 | 37118 ft | 472 kts | 134° |
| 2026-05-04 09:02 | 45.91280 | 14.91658 | 37129 ft | 472 kts | 134° |
| 2026-05-04 09:03 | 45.86720 | 14.98530 | 37124 ft | 473 kts | 134° |
| 2026-05-04 09:03 | 45.82179 | 15.05355 | 37122 ft | 473 kts | 134° |
| 2026-05-04 09:04 | 45.77641 | 15.12160 | 37118 ft | 473 kts | 134° |
| 2026-05-04 09:04 | 45.73094 | 15.18959 | 37127 ft | 473 kts | 134° |
| 2026-05-04 09:05 | 45.68521 | 15.25782 | 37120 ft | 473 kts | 134° |
| 2026-05-04 09:05 | 45.63968 | 15.32558 | 37126 ft | 473 kts | 134° |
| 2026-05-04 09:06 | 45.59412 | 15.39320 | 37133 ft | 473 kts | 134° |
| 2026-05-04 09:07 | 45.43371 | 15.62997 | 36595 ft | 486 kts | 135° |
| 2026-05-04 09:08 | 45.40999 | 15.66480 | 36333 ft | 487 kts | 135° |
| 2026-05-04 09:08 | 45.38636 | 15.69947 | 36067 ft | 485 kts | 134° |
| 2026-05-04 09:08 | 45.36285 | 15.73391 | 35809 ft | 484 kts | 134° |
| 2026-05-04 09:08 | 45.33949 | 15.76809 | 35583 ft | 483 kts | 135° |
| 2026-05-04 09:09 | 45.31623 | 15.80208 | 35326 ft | 482 kts | 135° |
| 2026-05-04 09:09 | 45.29265 | 15.83650 | 35158 ft | 483 kts | 135° |
| 2026-05-04 09:09 | 45.26936 | 15.87044 | 35131 ft | 484 kts | 135° |
| 2026-05-04 09:10 | 45.22219 | 15.93907 | 35123 ft | 489 kts | 135° |
| 2026-05-04 09:10 | 45.17460 | 16.00812 | 35126 ft | 491 kts | 135° |
| 2026-05-04 09:11 | 45.12685 | 16.07725 | 35131 ft | 492 kts | 135° |
| 2026-05-04 09:11 | 45.07902 | 16.14631 | 35121 ft | 492 kts | 135° |
| 2026-05-04 09:12 | 45.03117 | 16.21524 | 35124 ft | 491 kts | 135° |
| 2026-05-04 09:14 | 44.84771 | 16.50076 | 35137 ft | 492 kts | 131° |
| 2026-05-04 09:14 | 44.80291 | 16.57363 | 35133 ft | 492 kts | 131° |
| 2026-05-04 09:15 | 44.75802 | 16.64600 | 35130 ft | 492 kts | 131° |
| 2026-05-04 09:15 | 44.71296 | 16.71838 | 35128 ft | 493 kts | 131° |
| 2026-05-04 09:17 | 44.51619 | 17.03253 | 35141 ft | 495 kts | 131° |
| 2026-05-04 09:18 | 44.47072 | 17.10462 | 35125 ft | 495 kts | 131° |
| 2026-05-04 09:18 | 44.41745 | 17.18887 | 35152 ft | 496 kts | 131° |
| 2026-05-04 09:19 | 44.37911 | 17.24935 | 35146 ft | 497 kts | 131° |
| 2026-05-04 09:19 | 44.33325 | 17.32151 | 35152 ft | 497 kts | 131° |
| 2026-05-04 09:20 | 44.28738 | 17.39352 | 35147 ft | 497 kts | 131° |
| 2026-05-04 09:20 | 44.24133 | 17.46562 | 35158 ft | 497 kts | 131° |
| 2026-05-04 09:21 | 44.19566 | 17.53695 | 35146 ft | 497 kts | 131° |
| 2026-05-04 09:21 | 44.14952 | 17.60887 | 35148 ft | 497 kts | 131° |
| 2026-05-04 09:22 | 44.10392 | 17.68106 | 35173 ft | 497 kts | 128° |
| 2026-05-04 09:22 | 44.06128 | 17.75660 | 35174 ft | 497 kts | 126° |
| 2026-05-04 09:23 | 44.01939 | 17.83303 | 35164 ft | 498 kts | 126° |
| 2026-05-04 09:23 | 43.97700 | 17.90959 | 35170 ft | 497 kts | 126° |
| 2026-05-04 09:25 | 43.80662 | 18.21175 | 35190 ft | 499 kts | 126° |
| 2026-05-04 09:26 | 43.76358 | 18.28756 | 35182 ft | 500 kts | 126° |
| 2026-05-04 09:26 | 43.72069 | 18.36292 | 35178 ft | 499 kts | 127° |
| 2026-05-04 09:27 | 43.67794 | 18.43785 | 35172 ft | 499 kts | 127° |
| 2026-05-04 09:27 | 43.63492 | 18.51305 | 35181 ft | 500 kts | 127° |
| 2026-05-04 09:28 | 43.59165 | 18.58850 | 35179 ft | 501 kts | 126° |
| 2026-05-04 09:28 | 43.54844 | 18.66364 | 35184 ft | 501 kts | 126° |
| 2026-05-04 09:29 | 43.50520 | 18.73864 | 35178 ft | 501 kts | 126° |
| 2026-05-04 09:29 | 43.46189 | 18.81357 | 35196 ft | 501 kts | 126° |
| 2026-05-04 09:30 | 43.41816 | 18.88904 | 35183 ft | 502 kts | 126° |
| 2026-05-04 09:30 | 43.37465 | 18.96393 | 35174 ft | 502 kts | 126° |
| 2026-05-04 09:31 | 43.33106 | 19.03875 | 35183 ft | 502 kts | 126° |
| 2026-05-04 09:31 | 43.28743 | 19.11348 | 35179 ft | 502 kts | 126° |
| 2026-05-04 09:32 | 43.24376 | 19.18807 | 35185 ft | 503 kts | 126° |
| 2026-05-04 09:34 | 43.06838 | 19.48574 | 35201 ft | 501 kts | 126° |
| 2026-05-04 09:34 | 43.02466 | 19.55948 | 35180 ft | 500 kts | 126° |
| 2026-05-04 09:35 | 42.98083 | 19.63324 | 35182 ft | 500 kts | 126° |
| 2026-05-04 09:35 | 42.93710 | 19.70664 | 35192 ft | 500 kts | 126° |
| 2026-05-04 09:37 | 42.76131 | 19.99990 | 35193 ft | 499 kts | 126° |
| 2026-05-04 09:38 | 42.71708 | 20.07234 | 35190 ft | 500 kts | 129° |
| 2026-05-04 09:38 | 42.66840 | 20.14014 | 35228 ft | 502 kts | 132° |
| 2026-05-04 09:39 | 42.61915 | 20.20770 | 35213 ft | 501 kts | 129° |
| 2026-05-04 09:39 | 42.57305 | 20.27849 | 35208 ft | 501 kts | 126° |
| 2026-05-04 09:40 | 42.52981 | 20.35166 | 35196 ft | 501 kts | 124° |
| 2026-05-04 09:40 | 42.48693 | 20.42586 | 35202 ft | 501 kts | 124° |
| 2026-05-04 09:42 | 42.31303 | 20.72082 | 35198 ft | 502 kts | 125° |
| 2026-05-04 09:43 | 42.26937 | 20.79429 | 35199 ft | 503 kts | 125° |
| 2026-05-04 09:43 | 42.22550 | 20.86792 | 35208 ft | 503 kts | 125° |
| 2026-05-04 09:44 | 42.18156 | 20.94151 | 35201 ft | 503 kts | 125° |
| 2026-05-04 09:46 | 41.98849 | 21.21455 | 35193 ft | 506 kts | 134° |
| 2026-05-04 09:46 | 41.93676 | 21.27904 | 35168 ft | 507 kts | 133° |
| 2026-05-04 09:47 | 41.88564 | 21.34340 | 35172 ft | 506 kts | 133° |
| 2026-05-04 09:49 | 41.67954 | 21.60188 | 35165 ft | 509 kts | 134° |
| 2026-05-04 09:51 | 41.49795 | 21.82747 | 35172 ft | 510 kts | 134° |
| 2026-05-04 09:51 | 41.44613 | 21.89152 | 35175 ft | 509 kts | 134° |
| 2026-05-04 09:52 | 41.39403 | 21.95577 | 35164 ft | 508 kts | 134° |
| 2026-05-04 09:52 | 41.34232 | 22.01939 | 35166 ft | 507 kts | 134° |
| 2026-05-04 09:53 | 41.29046 | 22.08307 | 35163 ft | 507 kts | 134° |
| 2026-05-04 09:53 | 41.23869 | 22.14649 | 35193 ft | 507 kts | 134° |
| 2026-05-04 09:54 | 41.18670 | 22.21007 | 35169 ft | 508 kts | 134° |
| 2026-05-04 09:54 | 41.13397 | 22.27214 | 35140 ft | 508 kts | 137° |
| 2026-05-04 09:55 | 41.07895 | 22.33099 | 35162 ft | 509 kts | 138° |
| 2026-05-04 09:55 | 41.02365 | 22.38934 | 35159 ft | 509 kts | 138° |
| 2026-05-04 09:56 | 40.96923 | 22.44729 | 35139 ft | 495 kts | 137° |
| 2026-05-04 09:56 | 40.91784 | 22.50231 | 35173 ft | 497 kts | 138° |
| 2026-05-04 09:57 | 40.86466 | 22.55927 | 35173 ft | 505 kts | 138° |
| 2026-05-04 09:57 | 40.80971 | 22.61791 | 35200 ft | 510 kts | 138° |
| 2026-05-04 09:57 | 40.78204 | 22.64736 | 35355 ft | 510 kts | 138° |
| 2026-05-04 09:58 | 40.75470 | 22.67642 | 35571 ft | 508 kts | 138° |
| 2026-05-04 09:58 | 40.72716 | 22.70565 | 35818 ft | 505 kts | 138° |
| 2026-05-04 09:58 | 40.69971 | 22.73476 | 36035 ft | 504 kts | 139° |
| 2026-05-04 10:00 | 40.51037 | 22.93486 | 37192 ft | 499 kts | 139° |
| 2026-05-04 10:00 | 40.48342 | 22.96322 | 37195 ft | 499 kts | 139° |
| 2026-05-04 10:04 | 40.14787 | 23.41630 | 37156 ft | 493 kts | 131° |
| 2026-05-04 10:04 | 40.10054 | 23.48091 | 37170 ft | 493 kts | 131° |
| 2026-05-04 10:05 | 40.05323 | 23.54536 | 37169 ft | 492 kts | 131° |
| 2026-05-04 10:05 | 40.00564 | 23.61005 | 37168 ft | 492 kts | 132° |
| 2026-05-04 10:06 | 39.95844 | 23.67407 | 37176 ft | 492 kts | 132° |
| 2026-05-04 10:06 | 39.91105 | 23.73822 | 37167 ft | 492 kts | 132° |
| 2026-05-04 10:08 | 39.74477 | 23.96219 | 37170 ft | 492 kts | 132° |
| 2026-05-04 10:08 | 39.69706 | 24.02616 | 37171 ft | 492 kts | 132° |
| 2026-05-04 10:09 | 39.64969 | 24.08953 | 37180 ft | 492 kts | 132° |
| 2026-05-04 10:09 | 39.60401 | 24.15052 | 37163 ft | 491 kts | 132° |
| 2026-05-04 10:10 | 39.55640 | 24.21395 | 37164 ft | 492 kts | 133° |
| 2026-05-04 10:10 | 39.50865 | 24.27743 | 37165 ft | 492 kts | 133° |
| 2026-05-04 10:11 | 39.46092 | 24.34078 | 37173 ft | 493 kts | 133° |
| 2026-05-04 10:11 | 39.41321 | 24.40395 | 37178 ft | 493 kts | 133° |
| 2026-05-04 10:12 | 39.36491 | 24.46780 | 37169 ft | 494 kts | 133° |
| 2026-05-04 10:12 | 39.31715 | 24.53100 | 37161 ft | 494 kts | 133° |
| 2026-05-04 10:13 | 39.26963 | 24.59483 | 37159 ft | 494 kts | 132° |
| 2026-05-04 10:13 | 39.22207 | 24.65870 | 37160 ft | 494 kts | 133° |
| 2026-05-04 10:14 | 39.17405 | 24.72293 | 37156 ft | 495 kts | 133° |
| 2026-05-04 10:16 | 38.98109 | 24.97561 | 37146 ft | 496 kts | 134° |
| 2026-05-04 10:16 | 38.93256 | 25.03825 | 37164 ft | 497 kts | 134° |
| 2026-05-04 10:17 | 38.88364 | 25.10137 | 37156 ft | 498 kts | 134° |
| 2026-05-04 10:19 | 38.68779 | 25.35273 | 37147 ft | 499 kts | 134° |
| 2026-05-04 10:19 | 38.63874 | 25.41536 | 37141 ft | 499 kts | 134° |
| 2026-05-04 10:20 | 38.59790 | 25.46741 | 37139 ft | 500 kts | 134° |
| 2026-05-04 10:20 | 38.54843 | 25.53033 | 37137 ft | 500 kts | 134° |
| 2026-05-04 10:21 | 38.49928 | 25.59274 | 37137 ft | 500 kts | 134° |
| 2026-05-04 10:21 | 38.44994 | 25.65525 | 37147 ft | 500 kts | 134° |
| 2026-05-04 10:22 | 38.37575 | 25.74903 | 37119 ft | 500 kts | 134° |
| 2026-05-04 10:23 | 38.32669 | 25.81124 | 37118 ft | 500 kts | 134° |
| 2026-05-04 10:25 | 38.10767 | 26.02122 | 37088 ft | 487 kts | 149° |
| 2026-05-04 10:25 | 38.05001 | 26.06656 | 37122 ft | 491 kts | 148° |
| 2026-05-04 10:26 | 37.99176 | 26.11268 | 37122 ft | 497 kts | 148° |
| 2026-05-04 10:26 | 37.93293 | 26.15926 | 37114 ft | 500 kts | 148° |
| 2026-05-04 10:27 | 37.87403 | 26.20579 | 37109 ft | 500 kts | 148° |
| 2026-05-04 10:27 | 37.81497 | 26.25232 | 37104 ft | 501 kts | 148° |
| 2026-05-04 10:28 | 37.75556 | 26.29902 | 37109 ft | 501 kts | 149° |
| 2026-05-04 10:28 | 37.69656 | 26.34533 | 37101 ft | 500 kts | 149° |
| 2026-05-04 10:29 | 37.63777 | 26.39138 | 37091 ft | 499 kts | 149° |
| 2026-05-04 10:29 | 37.57855 | 26.43768 | 37096 ft | 497 kts | 149° |
| 2026-05-04 10:30 | 37.51992 | 26.48343 | 37086 ft | 496 kts | 149° |
| 2026-05-04 10:30 | 37.46139 | 26.52902 | 37090 ft | 495 kts | 149° |
| 2026-05-04 10:31 | 37.40299 | 26.57442 | 37104 ft | 494 kts | 149° |
| 2026-05-04 10:32 | 37.19833 | 26.73287 | 36067 ft | 498 kts | 149° |
| 2026-05-04 10:33 | 37.16898 | 26.75551 | 35439 ft | 498 kts | 149° |
| 2026-05-04 10:33 | 37.13930 | 26.77839 | 34787 ft | 499 kts | 149° |
| 2026-05-04 10:33 | 37.10961 | 26.80126 | 34105 ft | 501 kts | 149° |
| 2026-05-04 10:33 | 37.08010 | 26.82395 | 33331 ft | 501 kts | 149° |
| 2026-05-04 10:34 | 37.05039 | 26.84679 | 32634 ft | 498 kts | 149° |
| 2026-05-04 10:34 | 37.02102 | 26.86934 | 31842 ft | 499 kts | 149° |
| 2026-05-04 10:34 | 36.99125 | 26.89217 | 31094 ft | 498 kts | 148° |
| 2026-05-04 10:34 | 36.96205 | 26.91455 | 30603 ft | 489 kts | 148° |
| 2026-05-04 10:35 | 36.93305 | 26.93675 | 29724 ft | 487 kts | 148° |
| 2026-05-04 10:35 | 36.90438 | 26.95869 | 28784 ft | 485 kts | 148° |
| 2026-05-04 10:35 | 36.87590 | 26.98047 | 27763 ft | 485 kts | 148° |
| 2026-05-04 10:35 | 36.84720 | 27.00239 | 26897 ft | 482 kts | 148° |
| 2026-05-04 10:36 | 36.81837 | 27.02439 | 25922 ft | 481 kts | 148° |
| 2026-05-04 10:36 | 36.79017 | 27.04589 | 25122 ft | 478 kts | 148° |
| 2026-05-04 10:36 | 36.76187 | 27.06746 | 24499 ft | 470 kts | 148° |
| 2026-05-04 10:36 | 36.73436 | 27.08839 | 23850 ft | 464 kts | 148° |
| 2026-05-04 10:37 | 36.70705 | 27.11013 | 23121 ft | 458 kts | 143° |
| 2026-05-04 10:37 | 36.68400 | 27.13651 | 22470 ft | 451 kts | 131° |
| 2026-05-04 10:37 | 36.66541 | 27.16737 | 21898 ft | 443 kts | 121° |
| 2026-05-04 10:37 | 36.65140 | 27.20133 | 21272 ft | 437 kts | 112° |
| 2026-05-04 10:39 | 36.57985 | 27.40913 | 17364 ft | 440 kts | 110° |
| 2026-05-04 10:39 | 36.56758 | 27.44396 | 16703 ft | 436 kts | 110° |
| 2026-05-04 10:39 | 36.55534 | 27.47865 | 16071 ft | 431 kts | 111° |
| 2026-05-04 10:40 | 36.54344 | 27.51231 | 15465 ft | 427 kts | 111° |
| 2026-05-04 10:40 | 36.53163 | 27.54574 | 14860 ft | 423 kts | 110° |
| 2026-05-04 10:40 | 36.51980 | 27.57923 | 14259 ft | 419 kts | 111° |
| 2026-05-04 10:40 | 36.50807 | 27.61237 | 13629 ft | 415 kts | 111° |
| 2026-05-04 10:41 | 36.49659 | 27.64481 | 12985 ft | 412 kts | 111° |
| 2026-05-04 10:41 | 36.48505 | 27.67735 | 12366 ft | 408 kts | 110° |
| 2026-05-04 10:41 | 36.47372 | 27.70923 | 11783 ft | 403 kts | 109° |
| 2026-05-04 10:41 | 36.46409 | 27.74185 | 11215 ft | 395 kts | 101° |
| 2026-05-04 10:42 | 36.45959 | 27.77420 | 11172 ft | 373 kts | 94° |
| 2026-05-04 10:42 | 36.45569 | 27.80533 | 11010 ft | 361 kts | 94° |
| 2026-05-04 10:42 | 36.45166 | 27.83570 | 10859 ft | 349 kts | 95° |
| 2026-05-04 10:42 | 36.44766 | 27.86499 | 10717 ft | 338 kts | 96° |
| 2026-05-04 10:43 | 36.44378 | 27.89304 | 10582 ft | 328 kts | 94° |
| 2026-05-04 10:44 | 36.36146 | 28.04716 | 9294 ft | 297 kts | 124° |
| 2026-05-04 10:45 | 36.34881 | 28.06755 | 9031 ft | 296 kts | 123° |
| 2026-05-04 10:45 | 36.33858 | 28.08910 | 8717 ft | 289 kts | 101° |
| 2026-05-04 10:45 | 36.33444 | 28.11310 | 8451 ft | 283 kts | 95° |
| 2026-05-04 10:45 | 36.33092 | 28.13685 | 8146 ft | 283 kts | 95° |
| 2026-05-04 10:46 | 36.32735 | 28.16098 | 7852 ft | 282 kts | 96° |
| 2026-05-04 10:46 | 36.32379 | 28.18457 | 7592 ft | 281 kts | 96° |
| 2026-05-04 10:46 | 36.32012 | 28.20847 | 7307 ft | 280 kts | 96° |
| 2026-05-04 10:46 | 36.31645 | 28.23221 | 7044 ft | 279 kts | 96° |
| 2026-05-04 10:47 | 36.31280 | 28.25552 | 6792 ft | 277 kts | 96° |
| 2026-05-04 10:47 | 36.30910 | 28.27911 | 6522 ft | 277 kts | 96° |
| 2026-05-04 10:47 | 36.30544 | 28.30248 | 6258 ft | 275 kts | 95° |
| 2026-05-04 10:47 | 36.30520 | 28.32539 | 5970 ft | 262 kts | 70° |
| 2026-05-04 10:49 | 36.39878 | 28.38101 | 4348 ft | 194 kts | 7° |
| 2026-05-04 10:49 | 36.41163 | 28.38480 | 4275 ft | 192 kts | 8° |
| 2026-05-04 10:50 | 36.42482 | 28.38831 | 4192 ft | 192 kts | 4° |
| 2026-05-04 10:51 | 36.47330 | 28.32229 | 3356 ft | 180 kts | 263° |
| 2026-05-04 10:52 | 36.47001 | 28.30733 | 3175 ft | 180 kts | 261° |
| 2026-05-04 10:52 | 36.46600 | 28.29272 | 2970 ft | 176 kts | 258° |
| 2026-05-04 10:52 | 36.46189 | 28.27876 | 2781 ft | 172 kts | 257° |
| 2026-05-04 10:54 | 36.43639 | 28.19203 | 1550 ft | 139 kts | 260° |
| 2026-05-04 10:54 | 36.43313 | 28.18098 | 1384 ft | 133 kts | 261° |
| 2026-05-04 10:56 | 36.41181 | 28.10876 | 149 ft | 122 kts | 259° |
| 2026-05-04 10:56 | 36.40912 | 28.09902 | 39 ft | 119 kts | 259° |
| 2026-05-04 10:56 | 36.40618 | 28.08871 | 316 ft | 138 kts | 257° |
| 2026-05-04 10:57 | 36.40282 | 28.07618 | 678 ft | 174 kts | 259° |
| 2026-05-04 10:57 | 36.39889 | 28.06086 | 1128 ft | 191 kts | 257° |
| 2026-05-04 10:57 | 36.39295 | 28.04570 | 1850 ft | 200 kts | 248° |
| 2026-05-04 10:57 | 36.38554 | 28.03048 | 2516 ft | 211 kts | 243° |
| 2026-05-04 10:58 | 36.37397 | 28.01823 | 3306 ft | 236 kts | 208° |
| 2026-05-04 10:58 | 36.35751 | 28.01501 | 4223 ft | 247 kts | 175° |
| 2026-05-04 10:58 | 36.34137 | 28.02190 | 4748 ft | 243 kts | 142° |
| 2026-05-04 10:58 | 36.33042 | 28.03735 | 5018 ft | 245 kts | 109° |
| 2026-05-04 10:59 | 36.32540 | 28.05780 | 5008 ft | 248 kts | 96° |
| 2026-05-04 10:59 | 36.32169 | 28.07869 | 5025 ft | 247 kts | 97° |
| 2026-05-04 10:59 | 36.31804 | 28.09917 | 5007 ft | 245 kts | 94° |
| 2026-05-04 10:59 | 36.31462 | 28.11962 | 5001 ft | 237 kts | 93° |
| 2026-05-04 11:00 | 36.31118 | 28.13957 | 5019 ft | 234 kts | 95° |
| 2026-05-04 11:01 | 36.35916 | 28.25521 | 4886 ft | 221 kts | 53° |
| 2026-05-04 11:02 | 36.36689 | 28.27196 | 4621 ft | 225 kts | 53° |
| 2026-05-04 11:02 | 36.37457 | 28.28882 | 4339 ft | 222 kts | 54° |
| 2026-05-04 11:05 | 36.46849 | 28.32450 | 3417 ft | 170 kts | 289° |
| 2026-05-04 11:06 | 36.46733 | 28.30952 | 3213 ft | 185 kts | 256° |
| 2026-05-04 11:06 | 36.46313 | 28.29464 | 2988 ft | 179 kts | 261° |
| 2026-05-04 11:06 | 36.45957 | 28.28008 | 2803 ft | 174 kts | 261° |
| 2026-05-04 11:06 | 36.45603 | 28.26584 | 2601 ft | 169 kts | 260° |
| 2026-05-04 11:08 | 36.43007 | 28.17057 | 1203 ft | 141 kts | 259° |
| 2026-05-04 11:10 | 36.40880 | 28.09804 | 36 ft | 116 kts | 259° |
| 2026-05-04 11:12 | 36.40172 | 28.07994 | 27 ft | 15 kts | 70° |
| 2026-05-04 11:12 | 36.40209 | 28.08120 | 27 ft | 15 kts | 70° |
| 2026-05-04 11:12 | 36.40245 | 28.08243 | 27 ft | 15 kts | 71° |
| 2026-05-04 11:12 | 36.40280 | 28.08360 | 27 ft | 14 kts | 70° |
| 2026-05-04 11:13 | 36.40317 | 28.08486 | 27 ft | 17 kts | 71° |
| 2026-05-04 11:13 | 36.40356 | 28.08621 | 27 ft | 16 kts | 71° |
| 2026-05-04 11:13 | 36.40393 | 28.08748 | 27 ft | 16 kts | 72° |
| 2026-05-04 11:13 | 36.40399 | 28.08870 | 27 ft | 10 kts | 95° |
| 2026-05-04 11:14 | 36.40395 | 28.08934 | 27 ft | 7 kts | 95° |
| 2026-05-04 11:14 | 36.40399 | 28.08993 | 27 ft | 7 kts | 79° |
| 2026-05-04 11:14 | 36.40412 | 28.09049 | 27 ft | 7 kts | 69° |
| 2026-05-04 11:16 | 36.40377 | 28.09133 | 25 ft | 0 kts | 332° |